Terminal Aerodrome Forecast
Issued by NWS Austin/San Antonio, TX

Home | Current Version | Previous Version | Text Only | Print | Product List | Glossary On
Versions: 1 2 3 4 5 6 7 8 9 10 11 12 13 14 15 16 17 18 19 20 21
000
FTUS44 KEWX 030400 AAB
TAFDRT
TAF AMD
KDRT 030401Z 0304/0324 12015G25KT P6SM FEW070
     FM031000 12010KT P6SM BKN025
     FM031600 13012G22KT P6SM BKN070=

USA.gov is the U.S. government's official web portal to all federal, state and local government web resources and services.